Golden, Missouri
Current Conditions -  °F | °C
As of 2:35 AM on Friday 31 Oct 2014 (Local Time) from KFWB Reporting Station
Scattered Clouds Scattered Clouds  
Wind Chill: 52°   Ceiling: Unl
Heat Index: 52°   Visibility: 10mi
Dew Point: 39°   Wind: 13mph
Humidity: 62%   Direction: 350°N
Pressure: 30.13"   Gusts: 18mph
Location:  36.52°N, 93.65°W
Report Text: KFWB 310735Z AUTO 35011G16KT 10SM SCT035 11/04 A3013 RMK AO2
Loading
Personal Weather Stations






























Interactive Weather Map
Tropical Storm Tracking
New forecast layout! Learn more

10-Day Weather Forecast

Advertisements
Track Severe Weather on mobile